createdAt,value
2023-02-24T00:02:00.447Z,43.20
2023-02-24T00:04:29.753Z,39.40
2023-02-24T00:06:56.483Z,44.60
2023-02-24T00:09:26.693Z,43.00
2023-02-24T00:12:02.552Z,42.90
2023-02-24T00:14:33.272Z,39.97
2023-02-24T00:17:01.981Z,42.97
2023-02-24T00:19:33.975Z,38.70
2023-02-24T00:22:01.933Z,42.07
2023-02-24T00:24:29.591Z,39.67
2023-02-24T00:27:00.482Z,41.57
2023-02-24T00:29:29.578Z,43.10
2023-02-24T00:32:01.507Z,39.30
2023-02-24T00:34:33.850Z,42.23
2023-02-24T00:37:00.588Z,41.53
2023-02-24T00:39:35.033Z,43.17
2023-02-24T00:42:06.619Z,43.13
2023-02-24T00:44:38.175Z,44.90
2023-02-24T00:47:06.886Z,42.47
2023-02-24T00:49:43.287Z,41.77
2023-02-24T00:52:16.430Z,43.37
2023-02-24T00:54:45.923Z,45.23
2023-02-24T00:57:13.023Z,44.60
2023-02-24T00:59:40.391Z,41.87
2023-02-24T01:02:07.982Z,44.17
2023-02-24T01:04:34.784Z,40.57
2023-02-24T01:07:01.825Z,40.57
2023-02-24T01:09:33.042Z,43.73
2023-02-24T01:12:38.685Z,45.73
2023-02-24T01:15:09.355Z,44.90
2023-02-24T01:17:38.535Z,44.60
2023-02-24T01:20:19.102Z,44.63
2023-02-24T01:22:51.271Z,43.63
2023-02-24T01:25:20.788Z,45.23
2023-02-24T01:27:48.037Z,41.00
2023-02-24T01:30:16.151Z,43.17
2023-02-24T01:32:44.477Z,42.83
2023-02-24T01:35:12.109Z,45.93
2023-02-24T01:37:39.519Z,41.40
2023-02-24T01:40:12.141Z,46.77
2023-02-24T01:42:41.962Z,42.83
2023-02-24T01:45:17.599Z,43.63
2023-02-24T01:47:48.330Z,41.93
2023-02-24T01:50:17.656Z,42.97
2023-02-24T01:52:47.862Z,44.53
2023-02-24T01:55:23.230Z,42.23
2023-02-24T01:57:52.819Z,45.20
2023-02-24T02:00:33.069Z,43.83
2023-02-24T02:03:08.327Z,44.00
2023-02-24T02:05:35.317Z,44.13
2023-02-24T02:08:04.994Z,44.40
2023-02-24T02:10:32.600Z,44.90
2023-02-24T02:13:05.735Z,44.93
2023-02-24T02:15:44.009Z,44.30
2023-02-24T02:18:25.058Z,46.03
2023-02-24T02:21:36.404Z,41.10
2023-02-24T02:24:31.537Z,42.10
2023-02-24T02:27:10.282Z,44.20
2023-02-24T02:30:06.328Z,44.87
2023-02-24T02:33:03.102Z,42.40
2023-02-24T02:35:54.443Z,44.47
2023-02-24T02:38:31.669Z,44.53
2023-02-24T02:41:29.268Z,45.37
2023-02-24T02:44:12.448Z,44.23
2023-02-24T02:46:46.416Z,42.97
2023-02-24T02:49:22.039Z,43.73
2023-02-24T02:51:57.961Z,44.60
2023-02-24T02:54:33.979Z,44.27
2023-02-24T02:57:15.943Z,44.40
2023-02-24T02:59:50.810Z,43.30
2023-02-24T03:02:21.368Z,41.40
2023-02-24T03:04:54.675Z,41.93
2023-02-24T03:07:24.276Z,43.43
2023-02-24T03:09:56.471Z,42.73
2023-02-24T03:12:27.137Z,43.00
2023-02-24T03:15:00.163Z,42.50
2023-02-24T03:17:30.846Z,42.43
2023-02-24T03:20:17.557Z,44.90
2023-02-24T03:22:51.614Z,41.10
2023-02-24T03:25:30.411Z,40.37
2023-02-24T03:28:05.788Z,40.70
2023-02-24T03:30:51.146Z,41.97
2023-02-24T03:33:40.377Z,40.67
2023-02-24T03:36:08.141Z,41.40
2023-02-24T03:38:38.701Z,46.03
2023-02-24T03:41:11.346Z,40.60
2023-02-24T03:43:46.932Z,41.57
2023-02-24T03:46:17.169Z,37.27
2023-02-24T03:48:56.254Z,37.60
2023-02-24T03:51:25.364Z,40.40
2023-02-24T03:54:17.640Z,40.90
2023-02-24T03:56:59.911Z,40.63
2023-02-24T03:59:57.429Z,39.90
2023-02-24T04:02:32.404Z,42.50
2023-02-24T04:05:13.788Z,39.77
2023-02-24T04:08:06.618Z,38.97
2023-02-24T04:10:52.836Z,38.33
2023-02-24T04:13:35.340Z,43.60
2023-02-24T04:16:28.327Z,36.83
2023-02-24T04:19:04.259Z,35.20
2023-02-24T04:21:37.640Z,40.40
2023-02-24T04:24:11.668Z,42.60
2023-02-24T04:26:43.083Z,35.70
2023-02-24T04:29:17.784Z,40.77
2023-02-24T04:32:03.235Z,38.70
2023-02-24T04:34:32.451Z,41.90
2023-02-24T04:37:02.514Z,39.00
2023-02-24T04:39:31.695Z,40.70
2023-02-24T04:42:01.783Z,37.30
2023-02-24T04:44:30.608Z,37.07
2023-02-24T04:46:57.441Z,38.37
2023-02-24T04:49:24.185Z,36.77
2023-02-24T04:51:51.869Z,39.43
2023-02-24T04:54:20.729Z,39.53
2023-02-24T04:56:52.151Z,39.97
2023-02-24T04:59:20.471Z,38.27
2023-02-24T05:01:51.972Z,38.90
2023-02-24T05:04:19.835Z,39.93
2023-02-24T05:06:46.880Z,43.03
2023-02-24T05:09:18.307Z,40.20
2023-02-24T05:11:50.037Z,40.57
2023-02-24T05:14:20.896Z,38.43
2023-02-24T05:16:49.117Z,36.90
2023-02-24T05:19:38.195Z,37.17
2023-02-24T05:22:07.339Z,40.57
2023-02-24T05:24:35.012Z,40.23
2023-02-24T05:27:04.113Z,37.37
2023-02-24T05:29:35.564Z,38.97
2023-02-24T05:32:05.248Z,37.60
2023-02-24T05:34:33.417Z,38.90
2023-02-24T05:37:04.491Z,38.33
2023-02-24T05:39:31.034Z,39.70
2023-02-24T05:41:58.032Z,42.20
2023-02-24T05:44:26.726Z,41.57
2023-02-24T05:47:00.654Z,37.67
2023-02-24T05:49:34.255Z,45.00
2023-02-24T05:52:07.739Z,38.80
2023-02-24T05:54:41.270Z,44.23
2023-02-24T05:57:12.237Z,39.40
2023-02-24T05:59:41.621Z,41.13
2023-02-24T06:02:13.642Z,42.40
2023-02-24T06:04:55.935Z,42.50
2023-02-24T06:07:34.435Z,41.57
2023-02-24T06:10:02.202Z,37.87
2023-02-24T06:12:34.089Z,33.37
2023-02-24T06:15:08.176Z,35.47
2023-02-24T06:17:34.786Z,38.23
2023-02-24T06:20:01.558Z,40.60
2023-02-24T06:22:29.013Z,36.63
2023-02-24T06:24:57.199Z,37.30
2023-02-24T06:27:25.406Z,39.30
2023-02-24T06:29:53.998Z,39.60
2023-02-24T06:32:24.251Z,34.73
2023-02-24T06:34:52.120Z,34.80
2023-02-24T06:37:18.858Z,35.50
2023-02-24T06:39:46.299Z,34.33
2023-02-24T06:42:14.293Z,34.67
2023-02-24T06:44:41.577Z,34.17
2023-02-24T06:47:14.687Z,33.30
2023-02-24T06:49:42.965Z,38.97
2023-02-24T06:52:18.391Z,34.70
2023-02-24T06:54:48.570Z,33.60
2023-02-24T06:57:15.084Z,35.90
2023-02-24T06:59:42.398Z,36.87
2023-02-24T07:02:11.318Z,35.43
2023-02-24T07:04:45.413Z,37.07
2023-02-24T07:07:14.771Z,37.30
2023-02-24T07:09:42.740Z,42.07
2023-02-24T07:12:11.369Z,38.17
2023-02-24T07:14:38.448Z,34.67
2023-02-24T07:17:05.828Z,30.43
2023-02-24T07:19:32.678Z,36.43
2023-02-24T07:22:03.895Z,38.63
2023-02-24T07:24:40.633Z,37.70
2023-02-24T07:27:22.579Z,36.20
2023-02-24T07:29:53.517Z,37.13
2023-02-24T07:32:26.030Z,49.03
2023-02-24T07:34:53.238Z,49.57
2023-02-24T07:37:20.654Z,41.00
2023-02-24T07:39:47.480Z,66.00
2023-02-24T07:42:14.298Z,54.30
2023-02-24T07:44:46.563Z,51.60
2023-02-24T07:47:16.306Z,42.63
2023-02-24T07:49:45.483Z,45.83
2023-02-24T07:52:12.507Z,39.40
2023-02-24T07:54:41.085Z,40.17
2023-02-24T07:57:13.573Z,40.80
2023-02-24T07:59:45.684Z,39.20
2023-02-24T08:02:14.076Z,37.73
2023-02-24T08:04:41.242Z,39.80
2023-02-24T08:07:16.086Z,41.67
2023-02-24T08:09:45.997Z,44.53
2023-02-24T08:12:18.483Z,43.33
2023-02-24T08:14:50.904Z,37.00
2023-02-24T08:17:20.738Z,38.03
2023-02-24T08:19:49.382Z,43.17
2023-02-24T08:22:21.374Z,40.83
2023-02-24T08:24:52.855Z,43.87
2023-02-24T08:27:25.121Z,42.97
2023-02-24T08:30:00.438Z,44.90
2023-02-24T08:32:47.077Z,40.30
2023-02-24T08:35:16.757Z,43.67
2023-02-24T08:37:50.445Z,47.00
2023-02-24T08:40:32.397Z,40.57
2023-02-24T08:43:17.607Z,40.47
2023-02-24T08:45:51.060Z,45.80
2023-02-24T08:48:32.810Z,41.57
2023-02-24T08:51:02.287Z,39.70
2023-02-24T08:53:35.095Z,40.50
2023-02-24T08:56:09.881Z,38.53
2023-02-24T08:58:47.821Z,41.73
2023-02-24T09:01:34.990Z,39.90
2023-02-24T09:04:11.216Z,39.93
2023-02-24T09:06:53.854Z,40.07
2023-02-24T09:09:26.468Z,38.50
2023-02-24T09:11:58.954Z,37.13
2023-02-24T09:14:36.797Z,39.93
2023-02-24T09:17:07.690Z,37.77
2023-02-24T09:19:52.302Z,36.10
2023-02-24T09:22:32.048Z,37.57
2023-02-24T09:25:18.387Z,36.43
2023-02-24T09:27:52.674Z,35.07
2023-02-24T09:30:36.041Z,33.53
2023-02-24T09:33:19.335Z,35.17
2023-02-24T09:36:10.011Z,33.27
2023-02-24T09:39:03.370Z,31.97
2023-02-24T09:41:57.236Z,31.60
2023-02-24T09:44:39.256Z,29.83
2023-02-24T09:47:31.240Z,30.27
2023-02-24T09:50:04.373Z,27.92
2023-02-24T09:52:41.704Z,28.88
2023-02-24T09:55:35.812Z,26.02
2023-02-24T09:58:43.012Z,29.47
2023-02-24T10:01:48.164Z,28.10
2023-02-24T10:04:21.157Z,28.40
2023-02-24T10:06:48.312Z,25.47
2023-02-24T10:09:35.421Z,29.23
2023-02-24T10:12:27.800Z,28.00
2023-02-24T10:15:19.138Z,24.13
2023-02-24T10:17:56.089Z,26.73
2023-02-24T10:20:40.518Z,24.17
2023-02-24T10:23:33.462Z,24.77
2023-02-24T10:26:32.192Z,30.20
2023-02-24T10:29:09.770Z,30.33
2023-02-24T10:31:46.292Z,29.88
2023-02-24T10:34:25.729Z,28.63
2023-02-24T10:36:53.397Z,26.00
2023-02-24T10:39:25.900Z,29.30
2023-02-24T10:42:16.144Z,27.15
2023-02-24T10:45:01.308Z,23.67
2023-02-24T10:47:33.381Z,26.15
2023-02-24T10:50:02.611Z,25.87
2023-02-24T10:52:58.181Z,23.70
2023-02-24T10:55:43.156Z,24.58
2023-02-24T10:58:56.857Z,24.30
2023-02-24T11:02:03.002Z,22.80
2023-02-24T11:04:57.310Z,24.67
2023-02-24T11:07:44.212Z,22.07
2023-02-24T11:10:26.365Z,23.30
2023-02-24T11:13:14.138Z,21.67
2023-02-24T11:16:13.140Z,19.30
2023-02-24T11:18:45.945Z,20.40
2023-02-24T11:21:15.151Z,16.02
2023-02-24T11:23:46.830Z,17.95
2023-02-24T11:26:21.360Z,19.90
2023-02-24T11:29:04.108Z,18.87
2023-02-24T11:31:56.091Z,19.25
2023-02-24T11:34:55.346Z,19.13
2023-02-24T11:37:35.105Z,18.33
2023-02-24T11:40:30.918Z,18.57
2023-02-24T11:43:21.129Z,19.90
2023-02-24T11:45:53.449Z,19.20
2023-02-24T11:48:32.894Z,16.47
2023-02-24T11:51:07.310Z,17.00
2023-02-24T11:53:52.292Z,18.80
2023-02-24T11:56:34.220Z,16.57
2023-02-24T11:59:09.852Z,16.47
2023-02-24T12:01:46.510Z,19.10
2023-02-24T12:04:23.415Z,18.83
2023-02-24T12:07:28.516Z,17.53
2023-02-24T12:10:16.534Z,16.93
2023-02-24T12:13:08.700Z,15.30
2023-02-24T12:16:08.659Z,15.18
2023-02-24T12:18:47.114Z,15.97
2023-02-24T12:21:30.667Z,15.70
2023-02-24T12:23:58.713Z,14.00
2023-02-24T12:26:48.193Z,13.35
2023-02-24T12:29:24.032Z,10.70
2023-02-24T12:32:16.074Z,14.27
2023-02-24T12:34:49.004Z,11.60
2023-02-24T12:37:35.373Z,12.23
2023-02-24T12:40:02.003Z,11.23
2023-02-24T12:42:46.201Z,10.40
2023-02-24T12:45:24.302Z,13.27
2023-02-24T12:48:16.145Z,11.95
2023-02-24T12:51:00.726Z,11.65
2023-02-24T12:53:33.842Z,10.57
2023-02-24T12:56:25.093Z,12.05
2023-02-24T12:58:59.884Z,12.80
2023-02-24T13:01:37.088Z,12.07
2023-02-24T13:04:20.149Z,12.60
2023-02-24T13:07:02.447Z,11.68
2023-02-24T13:09:36.631Z,12.35
2023-02-24T13:12:25.423Z,13.85
2023-02-24T13:14:52.978Z,10.95
2023-02-24T13:17:23.591Z,14.18
2023-02-24T13:19:52.593Z,12.32
2023-02-24T13:22:39.373Z,12.83
2023-02-24T13:25:16.946Z,13.02
2023-02-24T13:27:54.171Z,11.07
2023-02-24T13:30:39.240Z,10.70
2023-02-24T13:33:22.057Z,13.23
2023-02-24T13:36:17.122Z,11.20
2023-02-24T13:38:49.846Z,10.60
2023-02-24T13:41:31.751Z,10.53
2023-02-24T13:44:23.449Z,11.73
2023-02-24T13:47:14.962Z,9.87
2023-02-24T13:50:07.441Z,8.98
2023-02-24T13:52:49.056Z,12.00
2023-02-24T13:55:51.340Z,9.13
2023-02-24T13:58:56.180Z,10.07
2023-02-24T14:01:26.723Z,10.47
2023-02-24T14:04:24.953Z,9.68
2023-02-24T14:07:26.049Z,9.83
2023-02-24T14:09:57.974Z,12.07
2023-02-24T14:12:30.652Z,11.60
2023-02-24T14:15:02.488Z,11.67
2023-02-24T14:17:37.453Z,10.17
2023-02-24T14:20:14.687Z,10.20
2023-02-24T14:22:48.034Z,10.60
2023-02-24T14:25:15.959Z,9.07
2023-02-24T14:27:50.346Z,11.63
2023-02-24T14:30:34.098Z,10.50
2023-02-24T14:33:04.667Z,10.07
2023-02-24T14:35:44.123Z,11.43
2023-02-24T14:38:49.331Z,8.93
2023-02-24T14:41:25.178Z,9.07
2023-02-24T14:43:52.679Z,10.07
2023-02-24T14:46:20.847Z,10.13
2023-02-24T14:48:53.915Z,10.23
2023-02-24T14:51:30.839Z,10.67
2023-02-24T14:54:06.975Z,9.53
2023-02-24T14:56:35.813Z,8.57
2023-02-24T14:59:16.069Z,8.20
2023-02-24T15:02:38.240Z,9.20
2023-02-24T15:04:43.803Z,8.17
2023-02-24T15:07:29.002Z,8.30
2023-02-24T15:09:58.144Z,10.13
2023-02-24T15:12:35.379Z,11.20
2023-02-24T15:15:09.486Z,9.63
2023-02-24T15:17:42.516Z,8.00
2023-02-24T15:20:25.912Z,10.87
2023-02-24T15:22:53.279Z,13.07
2023-02-24T15:25:42.383Z,8.70
2023-02-24T15:28:24.815Z,8.63
2023-02-24T15:31:04.707Z,8.63
2023-02-24T15:33:40.231Z,9.07
2023-02-24T15:36:12.798Z,10.03
2023-02-24T15:38:42.128Z,7.47
2023-02-24T15:41:11.879Z,8.70
2023-02-24T15:43:53.184Z,8.60
2023-02-24T15:46:31.444Z,8.67
2023-02-24T15:49:03.467Z,8.53
2023-02-24T15:51:42.976Z,7.80
2023-02-24T15:54:16.616Z,9.40
2023-02-24T15:56:45.330Z,11.87
2023-02-24T15:59:17.083Z,10.87
2023-02-24T16:01:44.250Z,8.50
2023-02-24T16:04:11.245Z,8.60
2023-02-24T16:06:43.726Z,10.40
2023-02-24T16:09:19.679Z,8.77
2023-02-24T16:11:48.494Z,10.90
2023-02-24T16:14:17.987Z,9.57
2023-02-24T16:16:46.132Z,9.33
2023-02-24T16:19:16.806Z,10.13
2023-02-24T16:21:44.285Z,10.30
2023-02-24T16:24:11.299Z,10.37
2023-02-24T16:26:40.525Z,9.90
2023-02-24T16:29:15.094Z,10.90
2023-02-24T16:31:42.776Z,10.87
2023-02-24T16:34:14.119Z,12.63
2023-02-24T16:36:42.729Z,10.70
2023-02-24T16:39:12.329Z,9.60
2023-02-24T16:41:40.764Z,10.70
2023-02-24T16:44:08.078Z,11.33
2023-02-24T16:46:38.312Z,10.27
2023-02-24T16:49:10.439Z,10.43
2023-02-24T16:51:39.126Z,9.20
2023-02-24T16:54:05.887Z,8.90
2023-02-24T16:56:33.532Z,8.73
2023-02-24T16:59:00.093Z,10.63
2023-02-24T17:01:27.025Z,10.27
2023-02-24T17:03:54.095Z,11.00
2023-02-24T17:06:23.906Z,10.23
2023-02-24T17:08:51.283Z,10.57
2023-02-24T17:11:20.313Z,10.00
2023-02-24T17:13:47.180Z,10.07
2023-02-24T17:16:15.322Z,11.43
2023-02-24T17:18:42.607Z,9.67
2023-02-24T17:21:13.421Z,10.37
2023-02-24T17:23:42.558Z,8.40
2023-02-24T17:26:13.002Z,8.80
2023-02-24T17:28:39.781Z,11.27
2023-02-24T17:31:07.666Z,8.73
2023-02-24T17:33:35.523Z,8.27
2023-02-24T17:36:02.933Z,9.30
2023-02-24T17:38:32.212Z,7.17
2023-02-24T17:41:00.727Z,7.07
2023-02-24T17:43:28.788Z,6.83
2023-02-24T17:45:55.636Z,9.17
2023-02-24T17:48:22.288Z,10.00
2023-02-24T17:50:49.697Z,6.90
2023-02-24T17:53:17.480Z,7.17
2023-02-24T17:56:01.485Z,6.80
2023-02-24T17:58:33.131Z,7.90
2023-02-24T18:01:02.442Z,7.17
2023-02-24T18:03:30.189Z,6.33
2023-02-24T18:06:18.101Z,6.03
2023-02-24T18:08:45.906Z,6.73
2023-02-24T18:11:18.926Z,6.27
2023-02-24T18:13:48.938Z,7.33
2023-02-24T18:16:18.321Z,6.13
2023-02-24T18:18:46.057Z,6.33
2023-02-24T18:21:12.798Z,8.00
2023-02-24T18:23:40.904Z,6.17
2023-02-24T18:26:10.149Z,5.43
2023-02-24T18:28:37.710Z,6.43
2023-02-24T18:31:30.967Z,6.57
2023-02-24T18:33:58.424Z,5.90
2023-02-24T18:36:27.045Z,5.43
2023-02-24T18:38:55.485Z,6.83
2023-02-24T18:41:23.844Z,5.63
2023-02-24T18:43:52.703Z,4.33
2023-02-24T18:46:20.063Z,5.03
2023-02-24T18:48:47.972Z,5.30
2023-02-24T18:51:19.565Z,4.67
2023-02-24T18:53:47.409Z,3.77
2023-02-24T18:56:20.258Z,3.47
2023-02-24T18:58:49.430Z,3.33
2023-02-24T19:01:22.509Z,3.97
2023-02-24T19:03:51.384Z,6.03
2023-02-24T19:06:20.943Z,2.83
2023-02-24T19:08:52.186Z,2.37
2023-02-24T19:11:21.116Z,2.63
2023-02-24T19:13:48.221Z,1.90
2023-02-24T19:16:16.864Z,2.97
2023-02-24T19:18:44.076Z,3.23
2023-02-24T19:21:11.648Z,3.23
2023-02-24T19:23:38.627Z,2.47
2023-02-24T19:26:07.369Z,2.73
2023-02-24T19:28:33.878Z,3.07
2023-02-24T19:31:03.907Z,1.33
2023-02-24T19:33:31.214Z,1.90
2023-02-24T19:35:59.968Z,1.93
2023-02-24T19:38:26.529Z,1.43
2023-02-24T19:40:53.360Z,2.00
2023-02-24T19:43:19.922Z,2.87
2023-02-24T19:45:46.853Z,2.40
2023-02-24T19:48:13.416Z,3.43
2023-02-24T19:50:41.088Z,2.37
2023-02-24T19:53:08.340Z,2.13
2023-02-24T19:55:35.021Z,2.33
2023-02-24T19:58:02.795Z,3.17
2023-02-24T20:00:30.627Z,2.80
2023-02-24T20:02:57.304Z,2.90
2023-02-24T20:05:25.994Z,2.70
2023-02-24T20:07:52.495Z,4.10
2023-02-24T20:10:19.157Z,3.73
2023-02-24T20:12:45.795Z,4.27
2023-02-24T20:15:12.908Z,4.33
2023-02-24T20:17:39.613Z,6.30
2023-02-24T20:20:07.177Z,3.93
2023-02-24T20:22:34.895Z,4.13
2023-02-24T20:25:02.676Z,6.33
2023-02-24T20:27:32.686Z,3.53
2023-02-24T20:29:59.487Z,4.00
2023-02-24T20:32:26.235Z,4.57
2023-02-24T20:34:53.270Z,3.40
2023-02-24T20:37:22.043Z,4.40
2023-02-24T20:39:48.760Z,4.50
2023-02-24T20:42:15.430Z,4.90
2023-02-24T20:44:42.185Z,4.30
2023-02-24T20:47:08.761Z,5.97
2023-02-24T20:49:35.525Z,5.83
2023-02-24T20:52:02.295Z,6.37
2023-02-24T20:54:28.859Z,4.80
2023-02-24T20:56:55.417Z,5.43
2023-02-24T20:59:23.123Z,7.53
2023-02-24T21:01:51.233Z,5.37
2023-02-24T21:04:20.981Z,6.53
2023-02-24T21:06:48.263Z,7.57
2023-02-24T21:09:15.875Z,5.17
2023-02-24T21:11:42.739Z,6.23
2023-02-24T21:14:17.472Z,8.00
2023-02-24T21:16:46.459Z,4.53
2023-02-24T21:19:13.198Z,7.00
2023-02-24T21:21:39.763Z,5.17
2023-02-24T21:24:07.413Z,5.03
2023-02-24T21:26:33.930Z,7.23
2023-02-24T21:29:00.492Z,7.53
2023-02-24T21:31:28.064Z,5.10
2023-02-24T21:33:55.985Z,5.07
2023-02-24T21:36:26.319Z,5.53
2023-02-24T21:38:53.877Z,4.33
2023-02-24T21:41:21.368Z,5.20
2023-02-24T21:43:51.271Z,4.20
2023-02-24T21:46:21.598Z,5.57
2023-02-24T21:48:53.696Z,7.33
2023-02-24T21:51:24.770Z,8.63
2023-02-24T21:53:54.870Z,6.13
2023-02-24T21:56:24.676Z,4.87
2023-02-24T21:58:58.838Z,7.30
2023-02-24T22:01:28.462Z,6.33
2023-02-24T22:03:57.434Z,7.20
2023-02-24T22:06:31.336Z,8.77
2023-02-24T22:08:59.221Z,7.60
2023-02-24T22:11:27.620Z,7.20
2023-02-24T22:13:54.939Z,7.67
2023-02-24T22:16:24.349Z,7.03
2023-02-24T22:18:53.607Z,7.73
2023-02-24T22:21:24.509Z,7.07
2023-02-24T22:23:56.219Z,8.13
2023-02-24T22:26:24.585Z,8.47
2023-02-24T22:28:51.809Z,6.63
2023-02-24T22:31:23.791Z,8.87
2023-02-24T22:33:50.766Z,11.77
2023-02-24T22:36:26.853Z,6.87
2023-02-24T22:39:01.514Z,7.67
2023-02-24T22:41:31.948Z,10.10
2023-02-24T22:43:59.876Z,8.23
2023-02-24T22:46:32.810Z,8.47
2023-02-24T22:48:59.773Z,7.70
2023-02-24T22:51:28.634Z,8.70
2023-02-24T22:53:55.744Z,8.27
2023-02-24T22:56:27.912Z,7.47
2023-02-24T22:58:55.425Z,7.27
2023-02-24T23:01:25.233Z,7.27
2023-02-24T23:03:53.474Z,6.87
2023-02-24T23:06:26.060Z,8.03
2023-02-24T23:08:54.114Z,6.00
2023-02-24T23:11:30.146Z,7.53
2023-02-24T23:14:01.553Z,7.93
2023-02-24T23:16:32.018Z,6.57
2023-02-24T23:19:01.721Z,7.47
2023-02-24T23:21:38.126Z,4.67
2023-02-24T23:24:06.416Z,9.27
2023-02-24T23:26:36.344Z,6.13
2023-02-24T23:29:03.788Z,5.83
2023-02-24T23:31:30.962Z,5.17
2023-02-24T23:34:00.243Z,6.77
2023-02-24T23:36:26.880Z,5.83
2023-02-24T23:38:54.378Z,6.40
2023-02-24T23:41:21.441Z,5.23
2023-02-24T23:43:48.593Z,8.30
2023-02-24T23:46:16.469Z,5.83
2023-02-24T23:48:43.594Z,6.63
2023-02-24T23:51:14.106Z,7.20
2023-02-24T23:53:43.180Z,7.53
2023-02-24T23:56:15.616Z,5.23
2023-02-24T23:58:42.937Z,5.87
